Flight Track Log - Related Links

Times and Time Zones

All times are in EDT time to prevent confusion due to time zone crossing. See the N95445 flight status page for this flight to view local times or setup timezone preferences in your user account.

Time Position Orientation Groundspeed Altitude Reporting Facility
EDT Latitude Longitude Course Direction KTS MPH feet Rate Location/Type
Thu 03:55:10 PM 40.8917 -82.5503 352° North 74 85 3,300  Level Cleveland Center
Thu 03:56:12 PM 40.9147 -82.5589 344° North 79 91 3,700 339 Climbing Cleveland Center
Thu 03:57:14 PM 40.9386 -82.5711 339° North 79 91 4,000 290 Climbing Cleveland Center
Thu 03:58:00 PM 41.0064 -82.6032 339° North  Level FlightAware Approximate
Thu 03:58:16 PM 40.9597 -82.5869 330° Northwest 79 91 4,300  Level Cleveland Center
Thu 03:59:00 PM 41.0385 -82.6192 339° North  Level FlightAware Approximate
Thu 03:59:19 PM 40.9800 -82.6061 324° Northwest 85 98 4,300  Level Cleveland Center
Thu 04:00:21 PM 41.0081 -82.6131 349° North 98 113 4,400 48 Climbing Cleveland Center
Thu 04:01:24 PM 41.0342 -82.6172 353° North 98 113 4,400 47 Level Cleveland Center
Thu 04:02:29 PM 41.0639 -82.6328 338° Northwest 91 105 4,500 48 Climbing Cleveland Center
Thu 04:03:28 PM 41.0772 -82.6483 319° Northwest 89 102 4,500 76 Level Cleveland Center
Thu 04:03:48 PM 41.0883 -82.6619 317° Northwest 90 104 4,600 97 Climbing Cleveland Center
Thu 04:04:30 PM 41.0992 -82.6761 315° West 90 104 4,600  Level Cleveland Center
Thu 04:04:49 PM 41.1050 -82.6844 313° West 93 107 4,600  Level Cleveland Center
Thu 04:05:32 PM 41.1211 -82.6972 329° Northwest 93 107 4,600  Level Cleveland Center
Thu 04:05:50 PM 41.1283 -82.7025 331° Northwest 91 105 4,600  Level Cleveland Center
Thu 04:06:34 PM 41.1425 -82.7144 328° Northwest 93 107 4,600 -98 Level Cleveland Center
Thu 04:06:51 PM 41.1472 -82.7225 308° West 93 107 4,500 -97 Descending Cleveland Center
Thu 04:07:36 PM 41.1639 -82.7347 331° Northwest 92 106 4,500  Level Cleveland Center
Thu 04:07:52 PM 41.1708 -82.7406 328° Northwest 92 106 4,500 97 Level Cleveland Center
Thu 04:08:38 PM 41.1867 -82.7486 339° North 91 105 4,600 100 Climbing Cleveland Center
Thu 04:08:52 PM 41.1947 -82.7531 337° Northwest 90 104 4,600  Level Cleveland Center
Thu 04:09:40 PM 41.2106 -82.7611 339° North 91 105 4,600 90 Level Cleveland Center
Thu 04:09:59 PM 41.2208 -82.7661 340° North 93 107 4,700  Climbing Cleveland Center
Thu 04:10:42 PM 41.2375 -82.7675 356° North 93 107 4,600 -218 Descending Cleveland Center
Thu 04:10:54 PM 41.2456 -82.7703 345° North 96 110 4,500 -164 Descending Cleveland Center
Thu 04:11:55 PM 41.2728 -82.7725 356° North 96 110 4,400 -53 Descending Cleveland Center
Thu 04:12:47 PM 41.2947 -82.7736 358° North 97 112 4,400  Level Cleveland Center
Thu 04:13:56 PM 41.3183 -82.7778 352° North 81 93 4,400  Level Cleveland Center
Thu 04:14:51 PM 41.3400 -82.7825 351° North 85 98 4,400  Level Cleveland Center

Login

Don't have an account? Register now (free) for customized features, flight alerts, and more!